createdAt,value
2022-10-13T00:00:21.548Z,101974.19
2022-10-13T00:02:47.905Z,101970.41
2022-10-13T00:05:20.708Z,101969.84
2022-10-13T00:07:47.076Z,101968.78
2022-10-13T00:10:14.510Z,101955.22
2022-10-13T00:12:40.849Z,101960.16
2022-10-13T00:15:32.271Z,101949.34
2022-10-13T00:17:58.664Z,101950.13
2022-10-13T00:20:26.200Z,101953.09
2022-10-13T00:23:02.606Z,101950.13
2022-10-13T00:25:47.638Z,101959.69
2022-10-13T00:28:18.993Z,101953.81
2022-10-13T00:30:58.813Z,101947.31
2022-10-13T00:33:25.727Z,101944.63
2022-10-13T00:35:52.255Z,101943.28
2022-10-13T00:38:36.016Z,101948.50
2022-10-13T00:41:02.973Z,101944.94
2022-10-13T00:43:55.338Z,101952.84
2022-10-13T00:46:37.034Z,101944.72
2022-10-13T00:49:15.709Z,101950.16
2022-10-13T00:51:46.836Z,101947.44
2022-10-13T00:54:17.483Z,101940.38
2022-10-13T00:57:00.280Z,101942.00
2022-10-13T00:59:29.366Z,101939.31
2022-10-13T01:01:58.770Z,101943.66
2022-10-13T01:04:52.777Z,101944.47
2022-10-13T01:07:19.293Z,101939.88
2022-10-13T01:09:47.307Z,101948.81
2022-10-13T01:13:00.585Z,101948.59
2022-10-13T01:16:04.663Z,101942.94
2022-10-13T01:18:46.455Z,101938.34
2022-10-13T01:21:33.154Z,101928.09
2022-10-13T01:24:19.412Z,101931.41
2022-10-13T01:27:14.981Z,101929.22
2022-10-13T01:30:25.028Z,101938.78
2022-10-13T01:33:19.884Z,101932.53
2022-10-13T01:36:06.779Z,101931.47
2022-10-13T01:38:54.494Z,101932.06
2022-10-13T01:41:51.501Z,101932.91
2022-10-13T01:44:25.516Z,101926.63
2022-10-13T01:46:53.856Z,101929.59
2022-10-13T01:49:27.017Z,101922.03
2022-10-13T01:52:17.939Z,101928.28
2022-10-13T01:55:05.864Z,101931.56
2022-10-13T01:57:44.179Z,101921.56
2022-10-13T02:00:25.891Z,101928.63
2022-10-13T02:03:11.984Z,101912.38
2022-10-13T02:06:01.252Z,101920.25
2022-10-13T02:08:39.781Z,101915.66
2022-10-13T02:11:20.524Z,101905.63
2022-10-13T02:14:11.896Z,101883.94
2022-10-13T02:16:44.428Z,101868.03
2022-10-13T02:19:15.816Z,101890.19
2022-10-13T02:22:09.585Z,101885.59
2022-10-13T02:24:36.037Z,101890.53
2022-10-13T02:27:05.332Z,101888.41
2022-10-13T02:29:50.465Z,101891.94
2022-10-13T02:32:22.300Z,101888.41
2022-10-13T02:34:49.244Z,101883.81
2022-10-13T02:37:19.922Z,101891.69
2022-10-13T02:39:46.305Z,101892.53
2022-10-13T02:42:12.713Z,101877.91
2022-10-13T02:44:45.315Z,101867.06
2022-10-13T02:47:13.277Z,101873.28
2022-10-13T02:49:39.633Z,101871.16
2022-10-13T02:52:06.177Z,101864.09
2022-10-13T02:54:32.562Z,101864.94
2022-10-13T02:57:00.045Z,101855.75
2022-10-13T02:59:26.418Z,101844.06
2022-10-13T03:01:56.793Z,101816.94
2022-10-13T03:04:23.236Z,101817.50
2022-10-13T03:06:49.607Z,101832.72
2022-10-13T03:09:19.072Z,101834.38
2022-10-13T03:11:45.520Z,101841.44
2022-10-13T03:14:11.941Z,101837.69
2022-10-13T03:16:40.437Z,101850.19
2022-10-13T03:19:06.819Z,101849.38
2022-10-13T03:21:33.182Z,101857.25
2022-10-13T03:23:59.551Z,101859.97
2022-10-13T03:26:27.341Z,101860.53
2022-10-13T03:28:53.765Z,101858.41
2022-10-13T03:31:27.365Z,101852.97
2022-10-13T03:33:53.736Z,101854.63
2022-10-13T03:36:47.194Z,101847.06
2022-10-13T03:39:13.795Z,101836.00
2022-10-13T03:41:46.136Z,101827.84
2022-10-13T03:44:18.804Z,101821.59
2022-10-13T03:46:45.184Z,101827.03
2022-10-13T03:49:21.928Z,101824.31
2022-10-13T03:52:43.963Z,101816.16
2022-10-13T03:55:10.426Z,101813.47
2022-10-13T03:57:36.843Z,101821.03
2022-10-13T04:00:03.957Z,101825.38
2022-10-13T04:02:33.724Z,101822.66
2022-10-13T04:05:01.198Z,101821.84
2022-10-13T04:07:27.578Z,101819.16
2022-10-13T04:09:54.136Z,101804.53
2022-10-13T04:12:21.277Z,101806.16
2022-10-13T04:14:49.842Z,101812.38
2022-10-13T04:17:20.248Z,101816.75
2022-10-13T04:19:46.627Z,101808.63
2022-10-13T04:22:13.135Z,101805.41
2022-10-13T04:24:39.642Z,101798.34
2022-10-13T04:27:06.074Z,101786.44
2022-10-13T04:29:32.747Z,101777.22
2022-10-13T04:32:00.048Z,101778.88
2022-10-13T04:34:26.505Z,101775.09
2022-10-13T04:36:52.915Z,101778.63
2022-10-13T04:39:19.469Z,101781.34
2022-10-13T04:41:58.156Z,101782.16
2022-10-13T04:44:24.606Z,101791.94
2022-10-13T04:47:01.477Z,101787.56
2022-10-13T04:49:28.000Z,101793.00
2022-10-13T04:51:59.483Z,101804.44
2022-10-13T04:54:39.148Z,101807.13
2022-10-13T04:57:05.601Z,101808.22
2022-10-13T04:59:38.420Z,101807.63
2022-10-13T05:02:04.902Z,101805.50
2022-10-13T05:04:31.361Z,101812.56
2022-10-13T05:07:18.036Z,101807.13
2022-10-13T05:09:44.351Z,101800.06
2022-10-13T05:12:10.897Z,101794.66
2022-10-13T05:14:39.348Z,101796.28
2022-10-13T05:17:05.700Z,101799.25
2022-10-13T05:19:32.095Z,101801.22
2022-10-13T05:21:58.498Z,101806.66
2022-10-13T05:24:36.282Z,101805.00
2022-10-13T05:27:09.072Z,101808.28
2022-10-13T05:29:36.284Z,101808.28
2022-10-13T05:32:03.119Z,101808.88
2022-10-13T05:34:29.549Z,101806.97
2022-10-13T05:36:56.175Z,101799.41
2022-10-13T05:39:22.679Z,101789.38
2022-10-13T05:41:51.081Z,101790.19
2022-10-13T05:44:17.654Z,101784.53
2022-10-13T05:46:44.437Z,101781.31
2022-10-13T05:49:25.234Z,101787.34
2022-10-13T05:51:55.510Z,101786.25
2022-10-13T05:54:30.227Z,101793.34
2022-10-13T05:57:04.591Z,101791.19
2022-10-13T05:59:37.694Z,101778.19
2022-10-13T06:02:06.308Z,101778.19
2022-10-13T06:04:42.881Z,101773.09
2022-10-13T06:07:09.943Z,101774.72
2022-10-13T06:09:38.249Z,101778.00
2022-10-13T06:12:06.380Z,101783.22
2022-10-13T06:14:36.089Z,101775.06
2022-10-13T06:17:02.517Z,101767.50
2022-10-13T06:19:31.236Z,101757.44
2022-10-13T06:22:11.080Z,101750.16
2022-10-13T06:24:40.539Z,101743.66
2022-10-13T06:27:11.407Z,101736.31
2022-10-13T06:29:37.930Z,101743.66
2022-10-13T06:32:12.756Z,101757.78
2022-10-13T06:34:39.207Z,101757.28
2022-10-13T06:37:15.940Z,101738.03
2022-10-13T06:39:42.329Z,101748.66
2022-10-13T06:42:14.004Z,101743.44
2022-10-13T06:44:55.886Z,101737.78
2022-10-13T06:47:25.565Z,101753.81
2022-10-13T06:49:51.925Z,101759.00
2022-10-13T06:52:18.518Z,101763.59
2022-10-13T06:54:49.073Z,101772.09
2022-10-13T06:57:15.592Z,101772.09
2022-10-13T06:59:44.298Z,101786.19
2022-10-13T07:02:11.851Z,101780.28
2022-10-13T07:04:38.208Z,101775.66
2022-10-13T07:07:04.600Z,101774.91
2022-10-13T07:09:31.807Z,101777.38
2022-10-13T07:12:07.479Z,101765.44
2022-10-13T07:14:33.951Z,101757.63
2022-10-13T07:17:19.104Z,101761.16
2022-10-13T07:19:48.573Z,101762.53
2022-10-13T07:22:15.685Z,101763.94
2022-10-13T07:24:42.581Z,101765.59
2022-10-13T07:27:10.149Z,101765.09
2022-10-13T07:29:36.625Z,101761.03
2022-10-13T07:32:08.068Z,101759.44
2022-10-13T07:34:34.579Z,101755.66
2022-10-13T07:37:00.930Z,101755.16
2022-10-13T07:39:27.284Z,101754.66
2022-10-13T07:41:59.640Z,101765.00
2022-10-13T07:44:26.398Z,101768.88
2022-10-13T07:47:11.237Z,101765.63
2022-10-13T07:50:02.903Z,101769.50
2022-10-13T07:52:29.358Z,101762.72
2022-10-13T07:55:07.208Z,101760.56
2022-10-13T07:57:56.609Z,101766.06
2022-10-13T08:00:22.983Z,101759.31
2022-10-13T08:02:51.093Z,101760.44
2022-10-13T08:05:22.661Z,101761.00
2022-10-13T08:08:06.416Z,101760.50
2022-10-13T08:10:32.878Z,101755.63
2022-10-13T08:12:59.323Z,101762.72
2022-10-13T08:15:25.804Z,101756.75
2022-10-13T08:18:11.952Z,101747.00
2022-10-13T08:20:43.898Z,101747.34
2022-10-13T08:23:11.376Z,101745.50
2022-10-13T08:25:42.276Z,101746.63
2022-10-13T08:28:28.886Z,101742.31
2022-10-13T08:30:59.881Z,101754.63
2022-10-13T08:33:26.873Z,101752.75
2022-10-13T08:35:53.919Z,101751.72
2022-10-13T08:38:20.516Z,101755.88
2022-10-13T08:40:49.060Z,101751.78
2022-10-13T08:43:18.620Z,101756.72
2022-10-13T08:45:48.360Z,101755.63
2022-10-13T08:48:24.477Z,101743.44
2022-10-13T08:50:54.942Z,101756.25
2022-10-13T08:53:34.203Z,101759.53
2022-10-13T08:56:07.628Z,101753.00
2022-10-13T08:58:37.119Z,101748.41
2022-10-13T09:01:09.686Z,101745.41
2022-10-13T09:03:48.121Z,101741.59
2022-10-13T09:06:19.284Z,101742.69
2022-10-13T09:08:58.547Z,101740.50
2022-10-13T09:11:49.500Z,101741.06
2022-10-13T09:14:40.171Z,101741.91
2022-10-13T09:17:19.745Z,101738.09
2022-10-13T09:19:57.757Z,101738.91
2022-10-13T09:22:31.121Z,101739.75
2022-10-13T09:25:06.437Z,101737.81
2022-10-13T09:27:50.370Z,101732.94
2022-10-13T09:30:39.747Z,101730.22
2022-10-13T09:33:09.041Z,101732.94
2022-10-13T09:35:37.223Z,101734.88
2022-10-13T09:38:11.685Z,101731.31
2022-10-13T09:40:40.726Z,101734.59
2022-10-13T09:43:34.790Z,101724.50
2022-10-13T09:46:04.264Z,101734.06
2022-10-13T09:49:08.399Z,101733.53
2022-10-13T09:51:40.147Z,101738.47
2022-10-13T09:54:50.155Z,101735.22
2022-10-13T09:57:28.841Z,101737.13
2022-10-13T10:00:04.456Z,101748.31
2022-10-13T10:02:36.009Z,101742.06
2022-10-13T10:05:11.466Z,101735.81
2022-10-13T10:07:38.000Z,101731.50
2022-10-13T10:10:12.436Z,101728.50
2022-10-13T10:12:41.972Z,101728.78
2022-10-13T10:15:26.332Z,101723.63
2022-10-13T10:17:58.896Z,101720.94
2022-10-13T10:20:49.281Z,101722.88
2022-10-13T10:23:37.888Z,101725.59
2022-10-13T10:26:13.233Z,101721.78
2022-10-13T10:28:50.569Z,101722.88
2022-10-13T10:31:37.194Z,101719.38
2022-10-13T10:34:40.533Z,101717.22
2022-10-13T10:37:15.415Z,101709.09
2022-10-13T10:39:48.498Z,101711.00
2022-10-13T10:42:25.488Z,101700.38
2022-10-13T10:44:54.913Z,101704.47
2022-10-13T10:47:27.002Z,101701.75
2022-10-13T10:49:59.716Z,101708.31
2022-10-13T10:52:53.736Z,101705.06
2022-10-13T10:55:32.712Z,101699.59
2022-10-13T10:58:04.988Z,101702.63
2022-10-13T11:00:41.346Z,101699.59
2022-10-13T11:03:14.116Z,101696.09
2022-10-13T11:06:12.757Z,101699.34
2022-10-13T11:08:42.157Z,101689.81
2022-10-13T11:11:24.815Z,101690.06
2022-10-13T11:13:56.218Z,101690.63
2022-10-13T11:16:37.825Z,101689.53
2022-10-13T11:19:25.877Z,101683.81
2022-10-13T11:21:55.258Z,101684.63
2022-10-13T11:24:33.839Z,101684.38
2022-10-13T11:27:12.354Z,101685.72
2022-10-13T11:29:46.404Z,101688.75
2022-10-13T11:32:25.021Z,101684.38
2022-10-13T11:34:59.151Z,101685.19
2022-10-13T11:37:35.733Z,101678.38
2022-10-13T11:40:08.069Z,101676.72
2022-10-13T11:43:08.429Z,101681.63
2022-10-13T11:45:40.965Z,101677.28
2022-10-13T11:48:38.411Z,101677.28
2022-10-13T11:51:16.688Z,101664.44
2022-10-13T11:53:55.499Z,101671.28
2022-10-13T11:56:33.416Z,101662.00
2022-10-13T11:58:59.919Z,101666.91
2022-10-13T12:01:26.364Z,101659.81
2022-10-13T12:03:52.798Z,101659.00
2022-10-13T12:06:33.032Z,101664.16
2022-10-13T12:09:07.300Z,101659.81
2022-10-13T12:11:37.593Z,101656.81
2022-10-13T12:14:19.452Z,101649.72
2022-10-13T12:19:30.564Z,101647.25
2022-10-13T12:22:01.639Z,101651.06
2022-10-13T12:24:30.476Z,101651.06
2022-10-13T12:26:58.432Z,101647.25
2022-10-13T12:29:29.500Z,101645.63
2022-10-13T12:31:59.547Z,101647.25
2022-10-13T12:34:36.333Z,101648.63
2022-10-13T12:37:15.229Z,101645.34
2022-10-13T12:39:41.764Z,101641.53
2022-10-13T12:42:13.084Z,101637.44
2022-10-13T12:44:40.061Z,101633.63
2022-10-13T12:47:55.540Z,101638.53
2022-10-13T12:50:24.943Z,101636.34
2022-10-13T12:52:54.158Z,101640.16
2022-10-13T12:55:22.726Z,101639.59
2022-10-13T12:57:50.917Z,101637.97
2022-10-13T13:00:22.306Z,101640.97
2022-10-13T13:02:54.394Z,101638.50
2022-10-13T13:05:33.229Z,101636.63
2022-10-13T13:08:01.509Z,101639.59
2022-10-13T13:10:28.577Z,101639.03
2022-10-13T13:12:56.154Z,101644.44
2022-10-13T13:15:25.531Z,101635.16
2022-10-13T13:17:58.788Z,101642.25
2022-10-13T13:20:33.786Z,101640.88
2022-10-13T13:23:01.140Z,101635.97
2022-10-13T13:25:27.584Z,101636.50
2022-10-13T13:27:54.043Z,101633.22
2022-10-13T13:30:22.499Z,101636.25
2022-10-13T13:32:49.159Z,101637.31
2022-10-13T13:35:15.839Z,101626.44
2022-10-13T13:37:53.028Z,101624.50
2022-10-13T13:40:22.176Z,101629.16
2022-10-13T13:42:48.806Z,101627.53
2022-10-13T13:45:17.706Z,101622.06
2022-10-13T13:47:44.986Z,101615.78
2022-10-13T13:50:17.112Z,101616.09
2022-10-13T13:52:43.516Z,101615.03
2022-10-13T13:55:09.986Z,101609.00
2022-10-13T13:57:36.332Z,101608.47
2022-10-13T14:00:04.840Z,101606.84
2022-10-13T14:02:31.780Z,101604.41
2022-10-13T14:04:58.591Z,101604.97
2022-10-13T14:07:25.134Z,101602.25
2022-10-13T14:09:51.578Z,101603.03
2022-10-13T14:12:18.386Z,101598.44
2022-10-13T14:14:45.160Z,101593.00
2022-10-13T14:17:11.532Z,101594.91
2022-10-13T14:19:37.901Z,101589.19
2022-10-13T14:22:09.172Z,101586.72
2022-10-13T14:24:35.903Z,101582.38
2022-10-13T14:27:02.347Z,101581.56
2022-10-13T14:29:29.608Z,101579.66
2022-10-13T14:31:56.128Z,101586.47
2022-10-13T14:34:22.809Z,101581.56
2022-10-13T14:36:49.190Z,101573.66
2022-10-13T14:39:15.793Z,101574.75
2022-10-13T14:41:42.261Z,101570.13
2022-10-13T14:44:11.559Z,101574.19
2022-10-13T14:46:38.078Z,101571.47
2022-10-13T14:49:04.509Z,101566.31
2022-10-13T14:51:32.556Z,101567.13
2022-10-13T14:54:01.673Z,101572.03
2022-10-13T14:56:30.215Z,101569.31
2022-10-13T14:58:59.119Z,101567.66
2022-10-13T15:01:25.856Z,101566.03
2022-10-13T15:03:52.657Z,101566.03
2022-10-13T15:06:21.450Z,101564.94
2022-10-13T15:08:48.481Z,101565.78
2022-10-13T15:11:16.766Z,101568.19
2022-10-13T15:13:43.557Z,101567.66
2022-10-13T15:16:20.682Z,101566.03
2022-10-13T15:18:47.534Z,101556.22
2022-10-13T15:21:14.842Z,101558.94
2022-10-13T15:23:42.038Z,101555.66
2022-10-13T15:26:10.051Z,101559.44
2022-10-13T15:28:39.702Z,101554.00
2022-10-13T15:31:06.796Z,101556.50
2022-10-13T15:33:34.060Z,101556.72
2022-10-13T15:36:00.604Z,101559.19
2022-10-13T15:38:27.638Z,101549.09
2022-10-13T15:40:59.271Z,101551.00
2022-10-13T15:43:25.695Z,101556.72
2022-10-13T15:45:59.972Z,101551.25
2022-10-13T15:48:26.744Z,101546.91
2022-10-13T15:50:55.762Z,101545.00
2022-10-13T15:53:22.333Z,101546.66
2022-10-13T15:55:48.862Z,101542.00
2022-10-13T15:58:37.355Z,101549.09
2022-10-13T16:01:20.280Z,101551.81
2022-10-13T16:03:46.730Z,101543.63
2022-10-13T16:06:14.305Z,101540.09
2022-10-13T16:08:44.213Z,101542.84
2022-10-13T16:11:12.929Z,101540.38
2022-10-13T16:13:39.773Z,101537.09
2022-10-13T16:16:06.631Z,101547.19
2022-10-13T16:18:35.604Z,101545.81
2022-10-13T16:21:18.047Z,101536.00
2022-10-13T16:23:46.987Z,101532.72
2022-10-13T16:26:13.665Z,101529.47
2022-10-13T16:28:54.798Z,101528.66
2022-10-13T16:31:21.232Z,101524.56
2022-10-13T16:33:48.386Z,101522.41
2022-10-13T16:36:17.684Z,101527.28
2022-10-13T16:38:47.957Z,101531.09
2022-10-13T16:41:17.357Z,101527.84
2022-10-13T16:43:44.886Z,101531.66
2022-10-13T16:46:13.566Z,101535.47
2022-10-13T16:48:45.600Z,101542.00
2022-10-13T16:51:15.150Z,101538.44
2022-10-13T16:53:42.082Z,101538.44
2022-10-13T16:56:09.195Z,101540.59
2022-10-13T16:58:36.073Z,101546.88
2022-10-13T17:01:12.539Z,101546.06
2022-10-13T17:03:40.226Z,101541.97
2022-10-13T17:06:07.204Z,101544.69
2022-10-13T17:08:34.009Z,101548.50
2022-10-13T17:11:01.327Z,101553.97
2022-10-13T17:13:27.736Z,101557.78
2022-10-13T17:15:56.726Z,101556.69
2022-10-13T17:18:31.582Z,101559.66
2022-10-13T17:21:15.303Z,101558.84
2022-10-13T17:24:02.038Z,101564.31
2022-10-13T17:26:41.814Z,101568.09
2022-10-13T17:29:09.343Z,101572.47
2022-10-13T17:31:46.003Z,101570.84
2022-10-13T17:34:12.419Z,101570.84
2022-10-13T17:36:43.043Z,101569.75
2022-10-13T17:39:17.862Z,101574.09
2022-10-13T17:41:44.386Z,101572.19
2022-10-13T17:44:13.054Z,101578.47
2022-10-13T17:46:40.665Z,101574.91
2022-10-13T17:49:10.454Z,101578.72
2022-10-13T17:51:37.007Z,101576.28
2022-10-13T17:54:03.924Z,101577.91
2022-10-13T17:56:37.783Z,101573.56
2022-10-13T17:59:04.400Z,101581.72
2022-10-13T18:01:33.901Z,101580.09
2022-10-13T18:04:11.124Z,101589.34
2022-10-13T18:06:44.029Z,101587.69
2022-10-13T18:09:17.086Z,101580.34
2022-10-13T18:11:49.863Z,101583.91
2022-10-13T18:14:18.955Z,101594.22
2022-10-13T18:16:48.970Z,101601.56
2022-10-13T18:19:15.628Z,101602.66
2022-10-13T18:21:42.245Z,101604.81
2022-10-13T18:24:09.845Z,101607.84
2022-10-13T18:26:36.405Z,101599.09
2022-10-13T18:29:05.814Z,101607.81
2022-10-13T18:31:34.904Z,101612.69
2022-10-13T18:34:04.016Z,101617.59
2022-10-13T18:36:32.098Z,101615.41
2022-10-13T18:39:07.432Z,101627.63
2022-10-13T18:41:35.918Z,101634.16
2022-10-13T18:44:05.671Z,101630.88
2022-10-13T18:46:33.084Z,101636.59
2022-10-13T18:48:59.596Z,101636.03
2022-10-13T18:51:26.458Z,101635.47
2022-10-13T18:53:52.903Z,101642.00
2022-10-13T18:56:24.783Z,101643.09
2022-10-13T18:58:56.971Z,101642.28
2022-10-13T19:01:27.860Z,101655.34
2022-10-13T19:03:54.723Z,101664.59
2022-10-13T19:06:26.810Z,101667.56
2022-10-13T19:09:01.109Z,101660.47
2022-10-13T19:11:28.960Z,101657.19
2022-10-13T19:13:55.651Z,101657.47
2022-10-13T19:16:24.212Z,101657.72
2022-10-13T19:18:51.462Z,101651.47
2022-10-13T19:21:18.903Z,101662.34
2022-10-13T19:23:45.346Z,101658.81
2022-10-13T19:26:15.196Z,101653.31
2022-10-13T19:28:42.851Z,101657.13
2022-10-13T19:31:11.203Z,101663.94
2022-10-13T19:33:44.268Z,101667.72
2022-10-13T19:36:19.285Z,101652.75
2022-10-13T19:38:45.648Z,101657.91
2022-10-13T19:41:11.984Z,101658.41
2022-10-13T19:43:38.356Z,101656.47
2022-10-13T19:46:07.120Z,101661.31
2022-10-13T19:48:33.929Z,101667.81
2022-10-13T19:51:01.474Z,101667.78
2022-10-13T19:53:28.048Z,101667.72
2022-10-13T19:55:54.428Z,101672.53
2022-10-13T19:58:20.862Z,101669.78
2022-10-13T20:00:47.333Z,101662.88
2022-10-13T20:03:14.231Z,101659.31
2022-10-13T20:05:41.574Z,101668.50
2022-10-13T20:08:10.220Z,101668.44
2022-10-13T20:10:43.789Z,101671.13
2022-10-13T20:13:10.915Z,101669.97
2022-10-13T20:15:42.314Z,101674.28
2022-10-13T20:18:10.112Z,101673.66
2022-10-13T20:20:36.556Z,101671.72
2022-10-13T20:23:03.295Z,101672.47
2022-10-13T20:25:29.912Z,101681.13
2022-10-13T20:27:56.452Z,101681.63
2022-10-13T20:30:23.019Z,101685.94
2022-10-13T20:32:49.391Z,101688.59
2022-10-13T20:35:15.860Z,101684.72
2022-10-13T20:37:42.188Z,101691.75
2022-10-13T20:40:09.080Z,101685.22
2022-10-13T20:42:35.588Z,101685.72
2022-10-13T20:45:01.988Z,101688.34
2022-10-13T20:47:28.357Z,101692.66
2022-10-13T20:49:54.733Z,101691.50
2022-10-13T20:52:21.088Z,101697.44
2022-10-13T20:54:47.455Z,101691.94
2022-10-13T20:57:13.886Z,101691.38
2022-10-13T20:59:40.204Z,101704.34
2022-10-13T21:02:06.670Z,101698.34
2022-10-13T21:04:38.698Z,101697.78
2022-10-13T21:07:05.246Z,101703.72
2022-10-13T21:09:35.249Z,101711.50
2022-10-13T21:12:01.802Z,101710.72
2022-10-13T21:14:28.207Z,101713.41
2022-10-13T21:17:17.417Z,101715.88
2022-10-13T21:19:43.875Z,101712.91
2022-10-13T21:22:10.606Z,101720.81
2022-10-13T21:24:41.342Z,101717.84
2022-10-13T21:27:15.835Z,101717.34
2022-10-13T21:29:42.244Z,101722.28
2022-10-13T21:32:09.766Z,101717.94
2022-10-13T21:34:43.317Z,101714.16
2022-10-13T21:37:14.144Z,101704.94
2022-10-13T21:39:41.740Z,101707.16
2022-10-13T21:42:08.351Z,101695.22
2022-10-13T21:44:41.548Z,101690.88
2022-10-13T21:47:08.045Z,101691.66
2022-10-13T21:49:35.760Z,101687.06
2022-10-13T21:52:02.181Z,101687.06
2022-10-13T21:54:31.646Z,101685.44
2022-10-13T21:56:58.235Z,101697.94
2022-10-13T21:59:24.630Z,101691.94
2022-10-13T22:01:51.144Z,101685.94
2022-10-13T22:04:17.693Z,101684.28
2022-10-13T22:06:47.167Z,101683.47
2022-10-13T22:09:14.293Z,101681.56
2022-10-13T22:11:42.005Z,101677.22
2022-10-13T22:14:15.660Z,101681.00
2022-10-13T22:16:47.263Z,101681.00
2022-10-13T22:19:15.694Z,101673.94
2022-10-13T22:21:48.623Z,101670.97
2022-10-13T22:24:35.394Z,101675.59
2022-10-13T22:27:01.807Z,101673.09
2022-10-13T22:29:28.262Z,101672.28
2022-10-13T22:31:56.709Z,101654.38
2022-10-13T22:34:23.434Z,101656.25
2022-10-13T22:36:56.065Z,101665.47
2022-10-13T22:39:23.487Z,101657.09
2022-10-13T22:41:50.070Z,101661.44
2022-10-13T22:44:16.490Z,101658.97
2022-10-13T22:46:48.095Z,101672.28
2022-10-13T22:49:14.758Z,101666.88
2022-10-13T22:52:09.947Z,101664.16
2022-10-13T22:54:36.435Z,101661.44
2022-10-13T22:57:02.869Z,101658.38
2022-10-13T22:59:29.313Z,101661.09
2022-10-13T23:01:55.762Z,101664.09
2022-10-13T23:04:22.298Z,101660.81
2022-10-13T23:06:54.775Z,101661.03
2022-10-13T23:09:21.158Z,101653.16
2022-10-13T23:11:59.908Z,101648.81
2022-10-13T23:14:26.605Z,101643.38
2022-10-13T23:16:52.989Z,101642.81
2022-10-13T23:19:20.463Z,101643.88
2022-10-13T23:21:46.880Z,101645.53
2022-10-13T23:24:46.449Z,101647.66
2022-10-13T23:27:17.166Z,101646.03
2022-10-13T23:29:43.586Z,101636.25
2022-10-13T23:32:39.122Z,101629.44
2022-10-13T23:35:06.034Z,101629.94
2022-10-13T23:37:38.514Z,101631.50
2022-10-13T23:40:05.554Z,101623.03
2022-10-13T23:42:32.079Z,101623.53
2022-10-13T23:44:58.740Z,101629.91
2022-10-13T23:47:25.155Z,101639.13
2022-10-13T23:49:51.582Z,101624.50
2022-10-13T23:52:21.282Z,101627.22
2022-10-13T23:54:47.954Z,101629.91
2022-10-13T23:57:14.391Z,101632.06
2022-10-13T23:59:50.979Z,101640.19
